Time;durP1;ratioP1;P1;durP2;ratioP2;P2;SDS_P1;SDS_P2;PMS_P1;PMS_P2;Temp;Humidity;BMP_temperature;BMP_pressure;BME280_temperature;BME280_humidity;BME280_pressure;Samples;Min_cycle;Max_cycle;Signal;HPM_P1;HPM_P2
2022/07/04 00:01:18;;;;;;;2.22;0.60;;;25.20;46.00;;;;;;2308113;54;20913;-70
2022/07/04 00:03:44;;;;;;;1.95;0.50;;;25.20;46.00;;;;;;2308986;54;20933;-69
2022/07/04 00:06:10;;;;;;;0.95;0.40;;;25.10;46.10;;;;;;2309260;54;21340;-68
2022/07/04 00:08:39;;;;;;;2.25;0.50;;;25.10;46.20;;;;;;2308752;54;21021;-68
2022/07/04 00:11:05;;;;;;;1.87;0.70;;;25.00;46.20;;;;;;2312336;54;21412;-69
2022/07/04 00:13:31;;;;;;;1.87;0.50;;;25.00;46.20;;;;;;2533841;54;21253;-69
2022/07/04 00:15:57;;;;;;;1.33;0.50;;;25.00;46.40;;;;;;2306002;54;20933;-70
2022/07/04 00:18:24;;;;;;;1.08;0.60;;;24.90;46.50;;;;;;2306342;54;20937;-69
2022/07/04 00:20:50;;;;;;;1.67;0.40;;;24.90;46.60;;;;;;2454897;54;21521;-68
2022/07/04 00:23:16;;;;;;;2.25;0.70;;;24.80;46.80;;;;;;2313847;54;21010;-69
2022/07/04 00:25:43;;;;;;;1.50;0.47;;;24.80;47.00;;;;;;2306609;54;21065;-69
2022/07/04 00:28:09;;;;;;;1.27;0.40;;;24.80;47.80;;;;;;2309924;54;20915;-68
2022/07/04 00:30:35;;;;;;;1.20;0.50;;;24.70;47.20;;;;;;2302828;54;20912;-69
2022/07/04 00:33:02;;;;;;;1.30;0.60;;;24.70;47.20;;;;;;2304574;54;21395;-70
2022/07/04 00:35:28;;;;;;;1.73;0.50;;;24.70;47.20;;;;;;2305203;54;20977;-71
2022/07/04 00:37:55;;;;;;;0.95;0.43;;;24.70;47.30;;;;;;2304078;54;20929;-71
2022/07/04 00:40:21;;;;;;;1.08;0.50;;;24.60;47.20;;;;;;2429223;54;20909;-69
2022/07/04 00:42:47;;;;;;;1.40;0.50;;;24.60;47.20;;;;;;2306338;54;20937;-69
2022/07/04 00:45:13;;;;;;;1.30;0.55;;;24.50;47.20;;;;;;2311020;54;20945;-68
2022/07/04 00:47:40;;;;;;;1.33;0.60;;;24.50;47.40;;;;;;2306370;54;20949;-69
2022/07/04 00:50:06;;;;;;;1.23;0.52;;;24.40;47.30;;;;;;2306265;54;20948;-68
2022/07/04 00:52:33;;;;;;;3.12;0.60;;;24.40;47.30;;;;;;2305445;54;20941;-69
2022/07/04 00:55:00;;;;;;;0.98;0.40;;;24.40;47.40;;;;;;2370926;54;20965;-68
2022/07/04 00:57:27;;;;;;;1.65;0.60;;;24.40;47.50;;;;;;2301249;54;21450;-70
2022/07/04 00:59:53;;;;;;;0.70;0.40;;;24.30;47.40;;;;;;2303025;54;20937;-69
2022/07/04 01:02:19;;;;;;;1.42;0.50;;;24.30;47.60;;;;;;2455033;54;21024;-68
2022/07/04 01:04:46;;;;;;;0.95;0.50;;;24.20;47.60;;;;;;2304367;54;20985;-68
2022/07/04 01:07:12;;;;;;;3.47;0.50;;;24.20;47.70;;;;;;2544681;54;21024;-68
2022/07/04 01:09:39;;;;;;;1.17;0.60;;;24.20;47.80;;;;;;2307208;54;21425;-69
2022/07/04 01:12:06;;;;;;;1.85;0.70;;;24.10;47.80;;;;;;2547550;54;20933;-68
2022/07/04 01:14:32;;;;;;;1.58;0.57;;;24.10;47.90;;;;;;2304588;54;20957;-68
2022/07/04 01:16:58;;;;;;;1.20;0.55;;;24.00;48.10;;;;;;2310199;54;20938;-66
2022/07/04 01:19:24;;;;;;;1.70;0.60;;;24.00;48.10;;;;;;2303422;54;20905;-70
2022/07/04 01:21:51;;;;;;;1.25;0.50;;;23.90;48.10;;;;;;2303463;54;20989;-68
2022/07/04 01:24:17;;;;;;;1.25;0.45;;;23.90;48.00;;;;;;2309059;54;21192;-69
2022/07/04 01:26:44;;;;;;;1.83;0.65;;;23.80;47.90;;;;;;2469309;54;21013;-70
2022/07/04 01:29:10;;;;;;;1.60;0.52;;;23.80;47.70;;;;;;2317432;54;20945;-70
2022/07/04 01:31:37;;;;;;;1.00;0.40;;;23.80;47.60;;;;;;2310627;54;20921;-70
2022/07/04 01:34:03;;;;;;;1.70;0.50;;;23.80;47.50;;;;;;2315033;54;21365;-71
2022/07/04 01:36:29;;;;;;;1.60;0.40;;;23.70;47.60;;;;;;2313279;54;20973;-68
2022/07/04 01:38:56;;;;;;;1.48;0.60;;;23.70;47.50;;;;;;2549952;54;20925;-69
2022/07/04 01:41:23;;;;;;;2.10;0.60;;;23.70;47.60;;;;;;2358697;54;20961;-70
2022/07/04 01:43:49;;;;;;;1.52;0.50;;;23.70;47.60;;;;;;2310632;54;20937;-68
2022/07/04 01:46:15;;;;;;;4.85;0.60;;;23.70;47.50;;;;;;2321605;54;21021;-68
2022/07/04 01:48:42;;;;;;;0.90;0.43;;;23.60;47.50;;;;;;2310799;54;21604;-70
2022/07/04 01:51:08;;;;;;;1.08;0.47;;;23.60;47.40;;;;;;2320323;54;20954;-69
2022/07/04 01:53:38;;;;;;;0.95;0.45;;;23.60;47.30;;;;;;2314355;53;21496;-67
2022/07/04 01:56:04;;;;;;;1.73;0.68;;;23.60;47.40;;;;;;2514249;53;22050;-68
2022/07/04 01:58:31;;;;;;;1.12;0.40;;;23.50;47.30;;;;;;2317157;54;20914;-67
2022/07/04 02:03:42;;;;;;;1.40;0.50;;;23.50;47.10;;;;;;2311152;54;20933;-68
2022/07/04 02:06:09;;;;;;;2.47;0.40;;;23.50;47.10;;;;;;2316349;54;21324;-68
2022/07/04 02:11:20;;;;;;;1.67;0.47;;;23.50;47.00;;;;;;2548976;54;21021;-67
2022/07/04 02:13:46;;;;;;;1.25;0.40;;;23.50;46.90;;;;;;2293510;54;20937;-68
2022/07/04 02:16:12;;;;;;;1.30;0.50;;;23.40;46.90;;;;;;2307627;54;20911;-70
2022/07/04 02:18:39;;;;;;;1.30;0.47;;;23.40;46.90;;;;;;2446355;54;21265;-70
2022/07/04 02:21:05;;;;;;;1.20;0.50;;;23.40;46.90;;;;;;2393953;54;20941;-69
2022/07/04 02:23:31;;;;;;;1.10;0.40;;;23.40;47.00;;;;;;2311220;54;20921;-68
2022/07/04 02:25:58;;;;;;;2.95;0.62;;;23.30;47.10;;;;;;2538180;54;20935;-71
2022/07/04 02:28:24;;;;;;;1.25;0.40;;;23.40;47.20;;;;;;2310347;54;20993;-68
2022/07/04 02:30:50;;;;;;;2.42;0.50;;;23.40;47.30;;;;;;2310751;54;20929;-68
2022/07/04 02:33:17;;;;;;;1.58;0.50;;;23.30;47.20;;;;;;2311170;54;20977;-70
2022/07/04 02:35:43;;;;;;;1.12;0.40;;;23.30;47.30;;;;;;2348413;54;20973;-68
2022/07/04 02:38:10;;;;;;;1.35;0.50;;;23.30;47.40;;;;;;2310055;54;20921;-68
2022/07/04 02:40:36;;;;;;;0.62;0.35;;;23.30;47.50;;;;;;2311549;54;20969;-68
2022/07/04 02:43:03;;;;;;;0.93;0.40;;;23.30;47.50;;;;;;2311396;54;20953;-69
2022/07/04 02:45:29;;;;;;;0.85;0.50;;;23.20;47.50;;;;;;2517202;54;20980;-69
2022/07/04 02:47:56;;;;;;;2.03;0.50;;;23.20;47.50;;;;;;2310709;54;20989;-67
2022/07/04 02:50:22;;;;;;;1.45;0.47;;;23.20;47.60;;;;;;2311222;54;20933;-68
2022/07/04 02:52:48;;;;;;;2.20;0.40;;;23.20;47.60;;;;;;2317645;54;20913;-68
2022/07/04 02:55:15;;;;;;;0.85;0.40;;;23.20;47.60;;;;;;2545689;54;20961;-69
2022/07/04 02:57:41;;;;;;;1.50;0.50;;;23.20;47.70;;;;;;2312989;54;21497;-69
2022/07/04 03:00:08;;;;;;;1.12;0.50;;;23.20;47.80;;;;;;2311760;54;20973;-70
2022/07/04 03:02:35;;;;;;;0.93;0.40;;;23.20;47.80;;;;;;2416526;54;21398;-70
2022/07/04 03:05:01;;;;;;;0.75;0.40;;;23.10;47.80;;;;;;2550761;54;20972;-68
2022/07/04 03:07:28;;;;;;;1.25;0.47;;;23.10;47.80;;;;;;2310968;54;20944;-67
2022/07/04 03:09:54;;;;;;;0.77;0.37;;;23.10;47.90;;;;;;2311071;54;21276;-68
2022/07/04 03:12:20;;;;;;;0.90;0.40;;;23.10;47.90;;;;;;2311356;54;21414;-69
2022/07/04 03:14:47;;;;;;;1.60;0.60;;;23.00;47.90;;;;;;2550285;54;20953;-67
2022/07/04 03:17:14;;;;;;;1.55;0.60;;;23.00;47.90;;;;;;2311146;54;21465;-70
2022/07/04 03:19:41;;;;;;;1.15;0.47;;;23.00;47.90;;;;;;2456710;54;21469;-69
2022/07/04 03:22:07;;;;;;;1.48;0.50;;;22.90;48.00;;;;;;2550585;54;21382;-69
2022/07/04 03:24:33;;;;;;;1.00;0.50;;;22.90;48.10;;;;;;2311195;54;20937;-69
2022/07/04 03:27:00;;;;;;;1.25;0.50;;;22.90;48.10;;;;;;2316252;54;21031;-67
2022/07/04 03:29:26;;;;;;;1.00;0.40;;;22.90;48.10;;;;;;2338757;54;21324;-67
2022/07/04 03:31:52;;;;;;;0.62;0.37;;;22.90;48.10;;;;;;2311022;54;21064;-68
2022/07/04 03:34:19;;;;;;;1.45;0.47;;;22.80;48.10;;;;;;2316538;54;20951;-68
2022/07/04 03:36:46;;;;;;;1.52;0.50;;;22.80;48.20;;;;;;2313543;54;20961;-67
2022/07/04 03:39:12;;;;;;;1.00;0.40;;;22.80;48.20;;;;;;2384587;54;20957;-68
2022/07/04 03:41:38;;;;;;;0.68;0.35;;;22.80;48.30;;;;;;2311216;54;20921;-67
2022/07/04 03:44:05;;;;;;;1.40;0.30;;;22.70;48.20;;;;;;2310775;54;20919;-70
2022/07/04 03:46:31;;;;;;;1.58;0.50;;;22.70;48.40;;;;;;2348085;54;21006;-67
2022/07/04 03:48:59;;;;;;;1.33;0.60;;;22.70;48.40;;;;;;2545394;54;21019;-69
2022/07/04 03:51:25;;;;;;;1.65;0.50;;;22.60;48.30;;;;;;2302162;54;20906;-69
2022/07/04 03:53:52;;;;;;;1.70;0.60;;;22.60;48.40;;;;;;2320587;54;20969;-68
2022/07/04 03:56:18;;;;;;;0.90;0.40;;;22.60;48.40;;;;;;2391217;54;21719;-67
2022/07/04 03:58:48;;;;;;;1.10;0.50;;;22.60;48.50;;;;;;2321024;54;21604;-70
2022/07/04 04:01:18;;;;;;;0.95;0.50;;;22.50;48.40;;;;;;2399692;54;2954947;-69
2022/07/04 04:06:29;;;;;;;1.10;0.45;;;22.50;48.50;;;;;;2294180;54;21025;-67
2022/07/04 04:08:56;;;;;;;1.05;0.40;;;22.50;48.50;;;;;;2397804;54;20908;-69
2022/07/04 04:11:22;;;;;;;0.93;0.40;;;22.40;48.50;;;;;;2304904;54;21545;-68
2022/07/04 04:13:49;;;;;;;1.27;0.50;;;22.40;48.50;;;;;;2462486;54;21048;-68
2022/07/04 04:16:15;;;;;;;1.08;0.40;;;22.40;48.60;;;;;;2304513;54;20941;-68
2022/07/04 04:18:41;;;;;;;1.30;0.40;;;22.30;48.60;;;;;;2299529;54;21435;-67
2022/07/04 04:21:08;;;;;;;1.30;0.60;;;22.30;48.60;;;;;;2297744;54;21774;-68
2022/07/04 04:23:34;;;;;;;1.35;0.40;;;22.30;48.70;;;;;;2492276;54;21618;-69
2022/07/04 04:26:00;;;;;;;1.08;0.50;;;22.20;48.60;;;;;;2304522;54;21723;-69
2022/07/04 04:28:27;;;;;;;1.10;0.40;;;22.20;48.70;;;;;;2292629;54;20952;-69
2022/07/04 04:30:54;;;;;;;1.48;0.40;;;22.20;48.80;;;;;;2352606;54;20937;-67
2022/07/04 04:33:20;;;;;;;1.10;0.52;;;22.20;48.90;;;;;;2367292;54;23018;-68
2022/07/04 04:35:47;;;;;;;2.33;0.40;;;22.10;48.80;;;;;;2294001;54;20961;-69
2022/07/04 04:38:13;;;;;;;1.77;0.60;;;22.10;48.90;;;;;;2299845;54;21327;-67
2022/07/04 04:40:40;;;;;;;1.35;0.52;;;22.10;49.20;;;;;;2298821;54;20962;-69
2022/07/04 04:43:07;;;;;;;1.10;0.40;;;22.10;49.30;;;;;;2365271;54;21041;-68
2022/07/04 04:45:34;;;;;;;2.20;0.57;;;22.10;49.40;;;;;;2336282;54;21009;-69
2022/07/04 04:48:00;;;;;;;1.12;0.40;;;22.10;49.40;;;;;;2312447;54;21009;-68
2022/07/04 04:50:26;;;;;;;1.52;0.60;;;22.10;49.50;;;;;;2303307;54;21679;-69
2022/07/04 04:52:53;;;;;;;1.73;0.60;;;22.00;49.50;;;;;;2314975;54;20949;-68
2022/07/04 04:55:20;;;;;;;1.95;0.62;;;22.10;49.60;;;;;;2299729;54;21001;-68
2022/07/04 04:57:46;;;;;;;1.25;0.50;;;22.10;49.70;;;;;;2322295;54;20969;-68
2022/07/04 05:00:13;;;;;;;0.93;0.50;;;22.20;49.80;;;;;;2327000;54;21502;-69
2022/07/04 05:02:39;;;;;;;0.90;0.40;;;22.10;49.80;;;;;;2336111;54;20953;-69
2022/07/04 05:05:06;;;;;;;2.42;0.50;;;22.10;49.90;;;;;;2290475;54;21418;-68
2022/07/04 05:07:33;;;;;;;1.40;0.50;;;22.10;49.90;;;;;;2437110;54;21359;-67
2022/07/04 05:10:00;;;;;;;0.77;0.40;;;22.10;50.00;;;;;;2289430;54;21033;-70
2022/07/04 05:12:26;;;;;;;2.22;0.98;;;22.20;50.30;;;;;;2413029;54;21077;-69
2022/07/04 05:14:53;;;;;;;1.02;0.50;;;22.10;50.10;;;;;;2297130;54;21030;-69
2022/07/04 05:17:20;;;;;;;1.05;0.50;;;22.20;50.30;;;;;;2283597;54;21013;-69
2022/07/04 05:19:48;;;;;;;1.55;0.73;;;22.20;50.40;;;;;;2306279;54;20949;-68
2022/07/04 05:22:15;;;;;;;1.67;0.50;;;22.20;50.40;;;;;;2291466;54;21044;-69
2022/07/04 05:24:41;;;;;;;1.37;0.50;;;22.30;50.50;;;;;;2295620;54;20925;-69
2022/07/04 05:27:09;;;;;;;1.42;0.60;;;22.30;50.50;;;;;;2496906;54;21557;-68
2022/07/04 05:29:36;;;;;;;1.52;0.50;;;22.30;50.50;;;;;;2300750;54;20985;-69
2022/07/04 05:32:02;;;;;;;2.30;0.57;;;22.30;50.50;;;;;;2537380;54;21040;-69
2022/07/04 05:34:29;;;;;;;1.60;0.60;;;22.40;50.60;;;;;;2304403;54;20963;-68
2022/07/04 05:36:56;;;;;;;2.37;0.60;;;22.40;50.60;;;;;;2345432;54;20949;-70
2022/07/04 05:39:23;;;;;;;1.67;0.62;;;22.40;50.70;;;;;;2301603;54;20913;-68
2022/07/04 05:41:49;;;;;;;1.10;0.50;;;22.50;50.90;;;;;;2441264;54;20958;-68
2022/07/04 05:44:16;;;;;;;2.12;0.70;;;22.50;51.00;;;;;;2304455;54;20977;-69
2022/07/04 05:46:42;;;;;;;1.35;0.60;;;22.50;51.10;;;;;;2457541;54;21502;-69
2022/07/04 05:49:08;;;;;;;1.95;0.70;;;22.50;51.00;;;;;;2414055;54;21126;-69
2022/07/04 05:51:35;;;;;;;2.60;1.25;;;22.60;51.00;;;;;;2296938;54;21312;-69
2022/07/04 05:54:02;;;;;;;1.90;0.60;;;22.60;51.10;;;;;;2308300;54;20917;-69
2022/07/04 05:56:28;;;;;;;1.60;0.70;;;22.60;51.00;;;;;;2477075;54;21526;-71
2022/07/04 05:58:54;;;;;;;2.00;0.77;;;22.70;51.00;;;;;;2309256;54;21363;-69
2022/07/04 06:01:21;;;;;;;1.30;0.60;;;22.70;50.90;;;;;;2376273;54;21446;-69
2022/07/04 06:03:47;;;;;;;1.85;0.77;;;22.70;50.80;;;;;;2304281;54;20925;-71
2022/07/04 06:06:13;;;;;;;2.30;0.70;;;22.70;50.80;;;;;;2304219;54;20918;-69
2022/07/04 06:08:40;;;;;;;1.67;0.70;;;22.80;50.80;;;;;;2308279;54;21963;-69
2022/07/04 06:11:06;;;;;;;1.67;0.70;;;22.80;50.80;;;;;;2462066;54;21505;-69
2022/07/04 06:13:32;;;;;;;1.55;0.60;;;22.90;50.90;;;;;;2484685;54;20953;-69
2022/07/04 06:15:59;;;;;;;1.20;0.60;;;22.90;51.00;;;;;;2315409;54;20917;-68
2022/07/04 06:18:27;;;;;;;2.87;0.80;;;22.90;51.00;;;;;;2303239;54;20909;-67
2022/07/04 06:20:53;;;;;;;2.62;0.80;;;22.90;51.00;;;;;;2303426;54;21323;-68
2022/07/04 06:23:20;;;;;;;2.00;0.75;;;22.90;51.00;;;;;;2348780;54;20990;-70
2022/07/04 06:25:47;;;;;;;1.55;0.57;;;23.00;51.00;;;;;;2407245;54;21068;-69
2022/07/04 06:28:13;;;;;;;1.80;0.60;;;23.00;51.00;;;;;;2301153;54;20984;-70
2022/07/04 06:30:51;;;;;;;1.95;0.90;;;23.00;51.10;;;;;;2304036;55;20933;-69
2022/07/04 06:33:18;;;;;;;1.73;0.70;;;23.10;51.80;;;;;;2300437;54;20917;-71
2022/07/04 06:35:45;;;;;;;2.53;0.75;;;23.10;51.20;;;;;;2354065;54;20957;-70
2022/07/04 06:38:13;;;;;;;1.70;0.60;;;23.20;51.20;;;;;;2362132;54;21102;-70
2022/07/04 06:40:39;;;;;;;1.73;0.70;;;23.20;51.20;;;;;;2305607;54;20951;-68
2022/07/04 06:43:05;;;;;;;2.75;0.68;;;23.30;51.30;;;;;;2298117;54;21457;-68
2022/07/04 06:45:33;;;;;;;1.02;0.60;;;23.30;51.20;;;;;;2332004;54;20945;-67
2022/07/04 06:48:00;;;;;;;1.50;0.60;;;23.40;51.30;;;;;;2316063;54;20988;-68
2022/07/04 06:50:26;;;;;;;2.10;0.85;;;23.40;51.30;;;;;;2291563;54;21390;-69
2022/07/04 06:53:06;;;;;;;2.00;0.68;;;23.50;51.30;;;;;;2303360;54;21042;-70
2022/07/04 06:55:32;;;;;;;2.33;0.77;;;23.60;51.40;;;;;;2309589;55;21313;-69
2022/07/04 06:57:58;;;;;;;2.15;0.73;;;23.60;51.20;;;;;;2298274;54;20994;-70
2022/07/04 07:00:25;;;;;;;2.10;0.75;;;23.60;51.20;;;;;;2302057;54;20925;-70
2022/07/04 07:02:51;;;;;;;2.37;0.80;;;23.60;51.20;;;;;;2301877;54;21501;-71
2022/07/04 07:05:17;;;;;;;2.30;0.90;;;23.70;51.30;;;;;;2341442;54;20929;-71
2022/07/04 07:07:45;;;;;;;2.35;0.73;;;23.80;51.30;;;;;;2308577;54;20973;-69
2022/07/04 07:10:12;;;;;;;1.98;0.60;;;23.80;51.20;;;;;;2416089;54;21078;-70
2022/07/04 07:12:38;;;;;;;1.23;0.50;;;23.80;51.10;;;;;;2307086;54;21429;-70
2022/07/04 07:15:05;;;;;;;1.60;0.65;;;23.90;51.10;;;;;;2313615;54;21516;-71
2022/07/04 07:17:32;;;;;;;1.87;1.00;;;23.90;51.10;;;;;;2472874;54;21512;-70
2022/07/04 07:20:00;;;;;;;1.55;0.60;;;23.90;51.00;;;;;;2333419;54;21349;-72
2022/07/04 07:22:26;;;;;;;1.62;0.57;;;24.00;51.10;;;;;;2490903;54;20969;-69
2022/07/04 07:24:53;;;;;;;3.15;0.95;;;24.10;51.10;;;;;;2310076;54;20909;-70
2022/07/04 07:27:19;;;;;;;2.03;0.80;;;24.10;51.00;;;;;;2309939;54;20985;-70
2022/07/04 07:29:46;;;;;;;1.98;0.70;;;24.10;51.10;;;;;;2466521;54;21494;-70
2022/07/04 07:32:12;;;;;;;1.75;0.70;;;24.10;50.90;;;;;;2310224;54;21818;-71
2022/07/04 07:34:39;;;;;;;1.58;0.60;;;24.20;51.10;;;;;;2310471;54;21323;-69
2022/07/04 07:37:05;;;;;;;3.72;0.70;;;24.20;51.10;;;;;;2315844;54;21030;-69
2022/07/04 07:39:31;;;;;;;3.58;0.80;;;24.30;51.00;;;;;;2311906;54;20957;-71
2022/07/04 07:41:57;;;;;;;1.85;0.70;;;24.40;51.00;;;;;;2310643;54;21964;-70
2022/07/04 07:44:24;;;;;;;2.78;0.70;;;24.40;50.90;;;;;;2310956;54;20956;-70
2022/07/04 07:46:50;;;;;;;1.17;0.55;;;24.40;50.80;;;;;;2310678;54;20937;-69
2022/07/04 07:49:16;;;;;;;1.90;0.60;;;24.50;50.70;;;;;;2308887;54;21532;-69
2022/07/04 07:51:43;;;;;;;2.37;0.70;;;24.50;50.70;;;;;;2308855;54;20909;-71
2022/07/04 07:54:09;;;;;;;1.25;0.60;;;24.60;50.70;;;;;;2313151;54;21506;-72
2022/07/04 07:56:44;;;;;;;2.15;0.60;;;24.60;50.50;;;;;;2311345;54;21301;-71
2022/07/04 07:59:10;;;;;;;2.03;0.85;;;24.60;50.40;;;;;;2323526;54;20990;-69
2022/07/04 08:01:37;;;;;;;2.90;0.70;;;24.70;50.40;;;;;;2322081;54;20949;-70
2022/07/04 08:06:48;;;;;;;2.33;0.80;;;24.70;50.40;;;;;;2299336;54;21541;-69
2022/07/04 08:09:31;;;;;;;2.30;0.75;;;24.80;50.30;;;;;;2382442;54;21352;-71
2022/07/04 08:11:58;;;;;;;1.70;0.70;;;24.80;50.30;;;;;;2310544;54;21005;-70
2022/07/04 08:14:24;;;;;;;2.97;0.80;;;24.80;50.50;;;;;;2309125;54;20906;-69
2022/07/04 08:16:51;;;;;;;3.62;0.80;;;24.90;50.70;;;;;;2308477;54;21013;-70
2022/07/04 08:19:21;;;;;;;1.73;0.70;;;24.90;50.60;;;;;;2309245;54;21068;-71
2022/07/04 08:21:49;;;;;;;2.60;1.02;;;24.90;50.70;;;;;;2307896;54;21386;-70
2022/07/04 08:24:30;;;;;;;1.42;0.68;;;25.00;50.60;;;;;;2310607;54;21012;-70
2022/07/04 08:26:57;;;;;;;1.55;0.57;;;25.00;50.60;;;;;;2307609;54;21545;-69
2022/07/04 08:29:23;;;;;;;2.08;0.88;;;25.10;50.70;;;;;;2292377;54;21085;-70
2022/07/04 08:31:50;;;;;;;2.65;0.70;;;25.10;50.60;;;;;;2285861;54;21030;-71
2022/07/04 08:34:17;;;;;;;2.45;0.70;;;25.20;50.70;;;;;;2287897;54;20990;-70
2022/07/04 08:36:44;;;;;;;1.65;0.73;;;25.20;50.70;;;;;;2331521;54;20933;-70
2022/07/04 08:39:10;;;;;;;1.95;0.70;;;25.30;50.70;;;;;;2322876;54;20968;-71
2022/07/04 08:41:38;;;;;;;2.10;0.77;;;25.30;50.80;;;;;;2277599;54;20958;-71
2022/07/04 08:44:06;;;;;;;1.65;0.55;;;25.40;50.70;;;;;;2273491;54;21060;-70
2022/07/04 08:46:33;;;;;;;2.05;0.85;;;25.40;50.50;;;;;;2265547;54;20948;-72
2022/07/04 08:48:59;;;;;;;1.65;0.75;;;25.50;50.50;;;;;;2266256;54;22037;-71
2022/07/04 08:51:37;;;;;;;2.20;0.77;;;25.50;50.10;;;;;;2250396;54;20985;-70
2022/07/04 08:58:25;;;;;;;1.67;0.70;;;25.60;49.70;;;;;;2230087;54;20940;-70
2022/07/04 09:00:54;;;;;;;1.10;0.55;;;25.60;49.40;;;;;;2366863;54;22058;-70
2022/07/04 09:03:21;;;;;;;2.72;0.80;;;25.70;49.30;;;;;;2235478;54;22194;-70
2022/07/04 09:05:47;;;;;;;1.37;0.50;;;25.70;49.50;;;;;;2227212;54;21423;-71
2022/07/04 09:08:14;;;;;;;2.05;0.80;;;25.80;49.60;;;;;;2232720;54;20965;-70
2022/07/04 09:10:40;;;;;;;2.70;0.65;;;25.80;49.80;;;;;;2254819;54;20961;-70
2022/07/04 09:13:08;;;;;;;1.50;0.70;;;25.80;49.70;;;;;;2303056;54;20937;-71
2022/07/04 09:15:36;;;;;;;1.65;0.70;;;25.90;49.70;;;;;;2248370;54;21383;-71
2022/07/04 09:18:03;;;;;;;1.27;0.55;;;26.00;49.70;;;;;;2253256;54;20945;-70
2022/07/04 09:20:32;;;;;;;1.73;0.60;;;26.00;49.50;;;;;;2334315;54;22117;-70
2022/07/04 09:22:58;;;;;;;3.53;0.82;;;26.10;49.40;;;;;;2282661;54;20921;-70
2022/07/04 09:25:25;;;;;;;2.22;0.68;;;26.10;49.70;;;;;;2296213;54;21810;-70
2022/07/04 09:27:53;;;;;;;2.25;0.82;;;26.20;49.80;;;;;;2303261;54;20917;-73
2022/07/04 09:30:27;;;;;;;1.27;0.52;;;26.30;49.50;;;;;;2305875;54;20937;-70
2022/07/04 09:32:59;;;;;;;1.27;0.50;;;26.30;49.20;;;;;;2308414;54;21701;-72
2022/07/04 09:35:27;;;;;;;2.30;0.70;;;26.40;49.50;;;;;;2321705;54;20965;-70
2022/07/04 09:37:55;;;;;;;1.40;0.70;;;26.50;49.30;;;;;;2302602;54;21340;-70
2022/07/04 09:43:25;;;;;;;1.12;0.50;;;26.60;48.30;;;;;;2310822;54;21505;-70
2022/07/04 09:45:57;;;;;;;2.35;0.52;;;26.60;48.30;;;;;;2310360;54;21486;-70
2022/07/04 09:48:24;;;;;;;1.50;0.60;;;26.70;48.20;;;;;;2551347;54;20957;-70
2022/07/04 09:50:50;;;;;;;2.85;0.90;;;26.70;48.30;;;;;;2313427;54;20992;-72
2022/07/04 09:53:17;;;;;;;1.55;0.62;;;26.70;48.10;;;;;;2310305;54;21000;-70
2022/07/04 09:55:46;;;;;;;1.85;0.60;;;26.80;48.30;;;;;;2310690;54;20985;-71
2022/07/04 09:58:13;;;;;;;3.05;0.68;;;26.80;49.10;;;;;;2341543;54;21391;-71
2022/07/04 10:00:40;;;;;;;2.72;0.80;;;26.90;48.20;;;;;;2310491;54;21465;-71
2022/07/04 10:03:26;;;;;;;3.30;0.82;;;26.90;47.70;;;;;;2315555;54;20959;-70
2022/07/04 10:06:11;;;;;;;1.55;0.60;;;27.00;46.90;;;;;;2466420;54;21493;-70
2022/07/04 10:08:39;;;;;;;1.60;0.60;;;27.00;46.90;;;;;;2425897;54;21852;-69
2022/07/04 10:11:07;;;;;;;2.37;0.60;;;27.00;47.20;;;;;;2308908;54;20961;-70
2022/07/04 10:13:35;;;;;;;1.60;0.50;;;27.10;47.60;;;;;;2309191;54;21005;-70
2022/07/04 10:16:01;;;;;;;1.27;0.47;;;27.10;46.90;;;;;;2436346;54;21831;-70
2022/07/04 10:18:27;;;;;;;1.52;0.60;;;27.20;46.80;;;;;;2308864;54;20948;-68
2022/07/04 10:20:54;;;;;;;1.62;0.60;;;27.20;46.80;;;;;;2309011;54;20930;-70
2022/07/04 10:23:21;;;;;;;3.75;0.70;;;27.20;46.70;;;;;;2300790;55;20957;-69
2022/07/04 10:25:51;;;;;;;2.22;0.62;;;27.20;46.80;;;;;;2311124;54;20993;-70
2022/07/04 10:28:18;;;;;;;1.85;0.68;;;27.30;46.70;;;;;;2309077;54;20949;-70
2022/07/04 10:30:47;;;;;;;2.45;0.73;;;27.30;46.60;;;;;;2308760;54;20953;-71
2022/07/04 10:33:13;;;;;;;2.67;0.60;;;27.40;46.50;;;;;;2308739;54;20957;-70
2022/07/04 10:35:53;;;;;;;3.25;0.85;;;27.40;47.00;;;;;;2380901;54;21460;-70
2022/07/04 10:38:34;;;;;;;1.42;0.60;;;27.50;46.30;;;;;;2309098;54;20969;-70
2022/07/04 10:41:09;;;;;;;1.33;0.55;;;27.50;46.30;;;;;;2353879;54;21398;-69
2022/07/04 10:44:08;;;;;;;1.55;0.65;;;27.60;46.40;;;;;;2309027;54;21015;-70
2022/07/04 10:46:48;;;;;;;2.53;0.70;;;27.70;46.00;;;;;;2308590;54;20953;-69
2022/07/04 10:49:19;;;;;;;2.10;0.70;;;27.70;46.00;;;;;;2308658;54;21414;-72
2022/07/04 10:51:49;;;;;;;1.57;0.60;;;27.70;46.00;;;;;;2309031;54;21019;-70
2022/07/04 10:54:38;;;;;;;1.87;0.60;;;27.80;46.00;;;;;;2311140;54;21459;-69
2022/07/04 10:57:21;;;;;;;2.33;0.70;;;27.80;45.80;;;;;;2345109;54;20977;-71
2022/07/04 11:00:20;;;;;;;2.60;0.73;;;27.80;45.60;;;;;;2312665;54;21561;-72
2022/07/04 11:02:47;;;;;;;1.87;0.70;;;27.90;45.10;;;;;;2316486;54;20998;-71
2022/07/04 11:05:15;;;;;;;1.73;0.60;;;27.90;45.40;;;;;;2304031;54;21008;-70
2022/07/04 11:08:03;;;;;;;1.67;0.70;;;27.90;45.50;;;;;;2299757;54;20921;-70
2022/07/04 11:10:30;;;;;;;1.73;0.62;;;27.90;45.00;;;;;;2311425;54;20890;-69
2022/07/04 11:13:07;;;;;;;1.90;0.70;;;28.00;45.30;;;;;;2314437;54;20974;-71
2022/07/04 11:15:58;;;;;;;2.15;0.70;;;28.00;45.00;;;;;;2310153;54;20925;-69
2022/07/04 11:18:24;;;;;;;1.10;0.50;;;28.10;45.00;;;;;;2315518;54;21022;-70
2022/07/04 11:20:51;;;;;;;1.95;0.70;;;28.10;45.10;;;;;;2313348;54;21326;-70
2022/07/04 11:23:21;;;;;;;1.23;0.55;;;28.10;45.00;;;;;;2366906;54;21054;-72
2022/07/04 11:25:52;;;;;;;2.20;0.60;;;28.10;44.80;;;;;;2327931;54;21603;-71
2022/07/04 11:28:26;;;;;;;1.85;0.65;;;28.20;45.00;;;;;;2305468;54;21363;-70
2022/07/04 11:31:10;;;;;;;1.50;0.60;;;28.20;45.20;;;;;;2437866;54;20953;-69
2022/07/04 11:33:37;;;;;;;1.55;0.60;;;28.30;45.20;;;;;;2549382;54;20982;-70
2022/07/04 11:36:07;;;;;;;1.12;0.50;;;28.30;45.10;;;;;;2308798;54;21406;-70
2022/07/04 11:39:35;;;;;;;1.33;0.52;;;28.40;45.10;;;;;;2308819;54;21600;-72
2022/07/04 11:45:02;;;;;;;2.15;0.62;;;28.50;44.90;;;;;;2492785;55;20981;-73
2022/07/04 11:47:36;;;;;;;1.25;0.70;;;28.60;45.10;;;;;;2325961;54;20937;-71
2022/07/04 11:50:11;;;;;;;0.82;0.47;;;28.70;44.80;;;;;;2308572;54;21665;-68
2022/07/04 11:52:41;;;;;;;1.40;0.47;;;28.70;44.60;;;;;;2308320;54;20937;-70
2022/07/04 11:55:38;;;;;;;1.35;0.60;;;28.80;44.60;;;;;;2307891;54;21493;-69
2022/07/04 11:58:04;;;;;;;2.35;0.68;;;28.80;44.70;;;;;;2307945;54;21009;-71
2022/07/04 12:00:31;;;;;;;3.33;0.60;;;28.80;44.50;;;;;;2308862;54;20976;-71
2022/07/04 12:03:01;;;;;;;3.10;0.70;;;28.90;44.30;;;;;;2322151;54;20998;-70
2022/07/04 12:05:28;;;;;;;4.30;0.75;;;28.90;44.30;;;;;;2295380;54;21042;-72
2022/07/04 12:07:54;;;;;;;1.70;0.60;;;29.00;44.50;;;;;;2309509;54;20909;-72
2022/07/04 12:10:49;;;;;;;2.37;0.70;;;29.00;44.20;;;;;;2308802;54;20940;-70
2022/07/04 12:13:16;;;;;;;2.05;0.60;;;29.10;44.00;;;;;;2315786;54;20942;-70
2022/07/04 12:15:44;;;;;;;1.65;0.70;;;29.10;43.90;;;;;;2368725;54;20956;-73
2022/07/04 12:18:31;;;;;;;1.75;0.68;;;29.10;43.80;;;;;;2308468;54;20928;-70
2022/07/04 12:21:22;;;;;;;1.25;0.60;;;29.10;43.80;;;;;;2442911;54;20886;-70
2022/07/04 12:23:52;;;;;;;2.90;0.90;;;29.20;43.60;;;;;;2309167;54;20933;-69
2022/07/04 12:26:35;;;;;;;1.33;0.50;;;29.20;43.70;;;;;;2309197;54;21049;-70
2022/07/04 12:29:01;;;;;;;1.80;0.68;;;29.20;44.00;;;;;;2547941;54;21524;-70
2022/07/04 12:31:42;;;;;;;1.25;0.60;;;29.20;43.70;;;;;;2309110;54;21349;-69
2022/07/04 12:34:15;;;;;;;2.67;0.70;;;29.30;43.40;;;;;;2546907;54;21470;-70
2022/07/04 12:36:51;;;;;;;1.87;0.70;;;29.30;43.40;;;;;;2394271;54;21589;-70
2022/07/04 12:39:33;;;;;;;1.90;0.65;;;29.30;43.60;;;;;;2308810;54;20985;-71
2022/07/04 12:42:17;;;;;;;2.10;0.68;;;29.40;43.40;;;;;;2307314;54;20997;-71
2022/07/04 12:44:44;;;;;;;2.05;0.65;;;29.40;43.40;;;;;;2320335;54;20941;-70
2022/07/04 12:47:11;;;;;;;1.48;0.70;;;29.40;43.60;;;;;;2308095;54;20917;-70
2022/07/04 12:49:44;;;;;;;1.35;0.57;;;29.50;43.90;;;;;;2308764;54;21017;-72
2022/07/04 12:52:15;;;;;;;2.58;0.70;;;29.60;43.50;;;;;;2307517;54;21005;-72
2022/07/04 12:54:44;;;;;;;1.70;0.50;;;29.60;43.40;;;;;;2313711;54;20986;-70
2022/07/04 12:57:15;;;;;;;1.67;0.50;;;29.60;43.60;;;;;;2312422;54;20941;-71
2022/07/04 12:59:42;;;;;;;1.40;0.60;;;29.70;43.80;;;;;;2309298;54;20938;-70
2022/07/04 13:02:09;;;;;;;2.15;0.85;;;29.70;43.50;;;;;;2308632;54;20942;-69
2022/07/04 13:04:36;;;;;;;1.23;0.60;;;29.80;43.60;;;;;;2307892;54;20945;-73
2022/07/04 13:07:15;;;;;;;1.73;0.60;;;29.90;43.40;;;;;;2456250;54;21066;-70
2022/07/04 13:09:43;;;;;;;1.35;0.60;;;29.90;42.70;;;;;;2319518;54;21414;-70
2022/07/04 13:12:27;;;;;;;1.83;0.75;;;29.90;43.00;;;;;;2320925;54;20954;-70
2022/07/04 13:14:54;;;;;;;0.98;0.40;;;30.00;42.90;;;;;;2306992;54;20994;-70
2022/07/04 13:17:21;;;;;;;1.48;0.50;;;30.00;42.80;;;;;;2328852;54;21025;-70